sensor_id;sensor_type;location;lat;lon;timestamp;pressure;altitude;pressure_sealevel;temperature
10058;BMP180;5068;51.286;7.518;2022-07-23T00:00:22;99595.00;;;20.50
10058;BMP180;5068;51.286;7.518;2022-07-23T00:01:55;99612.00;;;20.50
10058;BMP180;5068;51.286;7.518;2022-07-23T00:03:29;99637.00;;;20.50
10058;BMP180;5068;51.286;7.518;2022-07-23T00:05:04;99660.00;;;20.50
10058;BMP180;5068;51.286;7.518;2022-07-23T00:06:37;99680.00;;;20.40
10058;BMP180;5068;51.286;7.518;2022-07-23T00:08:11;99688.00;;;20.40
10058;BMP180;5068;51.286;7.518;2022-07-23T00:09:45;99690.00;;;20.30
10058;BMP180;5068;51.286;7.518;2022-07-23T00:11:19;99662.00;;;20.30
10058;BMP180;5068;51.286;7.518;2022-07-23T00:12:55;99635.00;;;20.30
10058;BMP180;5068;51.286;7.518;2022-07-23T00:14:28;99620.00;;;20.30
10058;BMP180;5068;51.286;7.518;2022-07-23T00:16:02;99602.00;;;20.30
10058;BMP180;5068;51.286;7.518;2022-07-23T00:17:36;99603.00;;;20.30
10058;BMP180;5068;51.286;7.518;2022-07-23T00:19:11;99595.00;;;20.30
10058;BMP180;5068;51.286;7.518;2022-07-23T00:20:44;99582.00;;;20.30
10058;BMP180;5068;51.286;7.518;2022-07-23T00:22:17;99581.00;;;20.30
10058;BMP180;5068;51.286;7.518;2022-07-23T00:23:51;99585.00;;;20.30
10058;BMP180;5068;51.286;7.518;2022-07-23T00:25:26;99589.00;;;20.30
10058;BMP180;5068;51.286;7.518;2022-07-23T00:27:02;99589.00;;;20.30
10058;BMP180;5068;51.286;7.518;2022-07-23T00:28:38;99592.00;;;20.30
10058;BMP180;5068;51.286;7.518;2022-07-23T00:30:13;99587.00;;;20.30
10058;BMP180;5068;51.286;7.518;2022-07-23T00:31:49;99592.00;;;20.30
10058;BMP180;5068;51.286;7.518;2022-07-23T00:33:22;99593.00;;;20.30
10058;BMP180;5068;51.286;7.518;2022-07-23T00:34:56;99596.00;;;20.30
10058;BMP180;5068;51.286;7.518;2022-07-23T00:36:29;99590.00;;;20.30
10058;BMP180;5068;51.286;7.518;2022-07-23T00:38:05;99595.00;;;20.30
10058;BMP180;5068;51.286;7.518;2022-07-23T00:39:38;99589.00;;;20.30
10058;BMP180;5068;51.286;7.518;2022-07-23T00:41:12;99586.00;;;20.30
10058;BMP180;5068;51.286;7.518;2022-07-23T00:42:45;99588.00;;;20.30
10058;BMP180;5068;51.286;7.518;2022-07-23T00:44:22;99595.00;;;20.30
10058;BMP180;5068;51.286;7.518;2022-07-23T00:45:56;99602.00;;;20.30
10058;BMP180;5068;51.286;7.518;2022-07-23T00:47:31;99603.00;;;20.30
10058;BMP180;5068;51.286;7.518;2022-07-23T00:49:05;99604.00;;;20.30
10058;BMP180;5068;51.286;7.518;2022-07-23T00:50:37;99596.00;;;20.30
10058;BMP180;5068;51.286;7.518;2022-07-23T00:52:11;99597.00;;;20.30
10058;BMP180;5068;51.286;7.518;2022-07-23T00:53:45;99602.00;;;20.30
10058;BMP180;5068;51.286;7.518;2022-07-23T00:55:19;99611.00;;;20.30
10058;BMP180;5068;51.286;7.518;2022-07-23T00:56:52;99611.00;;;20.30
10058;BMP180;5068;51.286;7.518;2022-07-23T00:58:26;99594.00;;;20.30
10058;BMP180;5068;51.286;7.518;2022-07-23T01:00:01;99594.00;;;20.30
10058;BMP180;5068;51.286;7.518;2022-07-23T01:01:35;99593.00;;;20.30
10058;BMP180;5068;51.286;7.518;2022-07-23T01:03:10;99595.00;;;20.30
10058;BMP180;5068;51.286;7.518;2022-07-23T01:04:43;99590.00;;;20.30
10058;BMP180;5068;51.286;7.518;2022-07-23T01:06:17;99590.00;;;20.30
10058;BMP180;5068;51.286;7.518;2022-07-23T01:07:51;99589.00;;;20.30
10058;BMP180;5068;51.286;7.518;2022-07-23T01:09:28;99590.00;;;20.20
10058;BMP180;5068;51.286;7.518;2022-07-23T01:11:02;99580.00;;;20.20
10058;BMP180;5068;51.286;7.518;2022-07-23T01:12:36;99586.00;;;20.20
10058;BMP180;5068;51.286;7.518;2022-07-23T01:14:13;99579.00;;;20.20
10058;BMP180;5068;51.286;7.518;2022-07-23T01:15:49;99581.00;;;20.20
10058;BMP180;5068;51.286;7.518;2022-07-23T01:17:23;99572.00;;;20.20
10058;BMP180;5068;51.286;7.518;2022-07-23T01:18:57;99571.00;;;20.20
10058;BMP180;5068;51.286;7.518;2022-07-23T01:20:32;99572.00;;;20.20
10058;BMP180;5068;51.286;7.518;2022-07-23T01:22:08;99569.00;;;20.20
10058;BMP180;5068;51.286;7.518;2022-07-23T01:23:44;99573.00;;;20.20
10058;BMP180;5068;51.286;7.518;2022-07-23T01:25:18;99574.00;;;20.20
10058;BMP180;5068;51.286;7.518;2022-07-23T01:26:59;99585.00;;;20.20
10058;BMP180;5068;51.286;7.518;2022-07-23T01:28:32;99578.00;;;20.20
10058;BMP180;5068;51.286;7.518;2022-07-23T01:30:07;99581.00;;;20.20
10058;BMP180;5068;51.286;7.518;2022-07-23T01:31:40;99569.00;;;20.20
10058;BMP180;5068;51.286;7.518;2022-07-23T01:33:15;99572.00;;;20.20
10058;BMP180;5068;51.286;7.518;2022-07-23T01:34:48;99577.00;;;20.20
10058;BMP180;5068;51.286;7.518;2022-07-23T01:36:22;99581.00;;;20.20
10058;BMP180;5068;51.286;7.518;2022-07-23T01:37:55;99564.00;;;20.20
10058;BMP180;5068;51.286;7.518;2022-07-23T01:39:30;99562.00;;;20.20
10058;BMP180;5068;51.286;7.518;2022-07-23T01:41:05;99572.00;;;20.10
10058;BMP180;5068;51.286;7.518;2022-07-23T01:42:39;99570.00;;;20.10
10058;BMP180;5068;51.286;7.518;2022-07-23T01:44:16;99566.00;;;20.10
10058;BMP180;5068;51.286;7.518;2022-07-23T01:45:50;99573.00;;;20.10
10058;BMP180;5068;51.286;7.518;2022-07-23T01:47:25;99563.00;;;20.10
10058;BMP180;5068;51.286;7.518;2022-07-23T01:49:00;99556.00;;;20.10
10058;BMP180;5068;51.286;7.518;2022-07-23T01:50:55;99561.00;;;20.10
10058;BMP180;5068;51.286;7.518;2022-07-23T01:52:41;99555.00;;;20.10
10058;BMP180;5068;51.286;7.518;2022-07-23T01:54:15;99544.00;;;20.10
10058;BMP180;5068;51.286;7.518;2022-07-23T01:55:50;99543.00;;;20.10
10058;BMP180;5068;51.286;7.518;2022-07-23T01:57:23;99549.00;;;20.10
10058;BMP180;5068;51.286;7.518;2022-07-23T01:58:56;99549.00;;;20.10
10058;BMP180;5068;51.286;7.518;2022-07-23T02:00:31;99556.00;;;20.10
10058;BMP180;5068;51.286;7.518;2022-07-23T02:02:04;99556.00;;;20.00
10058;BMP180;5068;51.286;7.518;2022-07-23T02:03:38;99555.00;;;20.00
10058;BMP180;5068;51.286;7.518;2022-07-23T02:05:12;99557.00;;;20.00
10058;BMP180;5068;51.286;7.518;2022-07-23T02:06:45;99548.00;;;20.00
10058;BMP180;5068;51.286;7.518;2022-07-23T02:08:18;99544.00;;;20.00
10058;BMP180;5068;51.286;7.518;2022-07-23T02:09:52;99550.00;;;20.00
10058;BMP180;5068;51.286;7.518;2022-07-23T02:11:26;99547.00;;;20.00
10058;BMP180;5068;51.286;7.518;2022-07-23T02:13:00;99541.00;;;19.90
10058;BMP180;5068;51.286;7.518;2022-07-23T02:14:34;99543.00;;;19.90
10058;BMP180;5068;51.286;7.518;2022-07-23T02:16:10;99542.00;;;19.90
10058;BMP180;5068;51.286;7.518;2022-07-23T02:17:43;99537.00;;;19.90
10058;BMP180;5068;51.286;7.518;2022-07-23T02:19:17;99535.00;;;19.90
10058;BMP180;5068;51.286;7.518;2022-07-23T02:20:51;99533.00;;;19.90
10058;BMP180;5068;51.286;7.518;2022-07-23T02:22:25;99524.00;;;19.90
10058;BMP180;5068;51.286;7.518;2022-07-23T02:23:58;99526.00;;;19.90
10058;BMP180;5068;51.286;7.518;2022-07-23T02:25:33;99527.00;;;19.90
10058;BMP180;5068;51.286;7.518;2022-07-23T02:27:08;99525.00;;;19.90
10058;BMP180;5068;51.286;7.518;2022-07-23T02:28:42;99522.00;;;19.90
10058;BMP180;5068;51.286;7.518;2022-07-23T02:30:16;99521.00;;;19.90
10058;BMP180;5068;51.286;7.518;2022-07-23T02:31:50;99521.00;;;19.90
10058;BMP180;5068;51.286;7.518;2022-07-23T02:33:24;99518.00;;;19.90
10058;BMP180;5068;51.286;7.518;2022-07-23T02:34:58;99520.00;;;19.90
10058;BMP180;5068;51.286;7.518;2022-07-23T02:36:32;99527.00;;;19.90
10058;BMP180;5068;51.286;7.518;2022-07-23T02:38:08;99529.00;;;19.90
10058;BMP180;5068;51.286;7.518;2022-07-23T02:39:41;99523.00;;;19.90
10058;BMP180;5068;51.286;7.518;2022-07-23T02:41:17;99528.00;;;19.90
10058;BMP180;5068;51.286;7.518;2022-07-23T02:42:52;99530.00;;;19.90
10058;BMP180;5068;51.286;7.518;2022-07-23T02:44:26;99533.00;;;19.90
10058;BMP180;5068;51.286;7.518;2022-07-23T02:46:00;99537.00;;;19.90
10058;BMP180;5068;51.286;7.518;2022-07-23T02:47:35;99545.00;;;19.90
10058;BMP180;5068;51.286;7.518;2022-07-23T02:49:08;99546.00;;;19.90
10058;BMP180;5068;51.286;7.518;2022-07-23T02:50:43;99543.00;;;19.90
10058;BMP180;5068;51.286;7.518;2022-07-23T02:52:19;99532.00;;;19.90
10058;BMP180;5068;51.286;7.518;2022-07-23T02:53:51;99535.00;;;19.80
10058;BMP180;5068;51.286;7.518;2022-07-23T02:55:26;99529.00;;;19.80
10058;BMP180;5068;51.286;7.518;2022-07-23T02:56:59;99531.00;;;19.80
10058;BMP180;5068;51.286;7.518;2022-07-23T02:58:33;99527.00;;;19.80
10058;BMP180;5068;51.286;7.518;2022-07-23T03:00:26;99524.00;;;19.80
10058;BMP180;5068;51.286;7.518;2022-07-23T03:02:00;99531.00;;;19.80
10058;BMP180;5068;51.286;7.518;2022-07-23T03:03:33;99532.00;;;19.80
10058;BMP180;5068;51.286;7.518;2022-07-23T03:05:07;99525.00;;;19.80
10058;BMP180;5068;51.286;7.518;2022-07-23T03:06:43;99523.00;;;19.80
10058;BMP180;5068;51.286;7.518;2022-07-23T03:08:17;99524.00;;;19.80
10058;BMP180;5068;51.286;7.518;2022-07-23T03:09:55;99529.00;;;19.80
10058;BMP180;5068;51.286;7.518;2022-07-23T03:11:31;99531.00;;;19.80
10058;BMP180;5068;51.286;7.518;2022-07-23T03:13:04;99532.00;;;19.70
10058;BMP180;5068;51.286;7.518;2022-07-23T03:14:39;99535.00;;;19.70
10058;BMP180;5068;51.286;7.518;2022-07-23T03:16:13;99531.00;;;19.70
10058;BMP180;5068;51.286;7.518;2022-07-23T03:17:47;99534.00;;;19.70
10058;BMP180;5068;51.286;7.518;2022-07-23T03:19:20;99538.00;;;19.70
10058;BMP180;5068;51.286;7.518;2022-07-23T03:20:55;99539.00;;;19.70
10058;BMP180;5068;51.286;7.518;2022-07-23T03:22:29;99542.00;;;19.60
10058;BMP180;5068;51.286;7.518;2022-07-23T03:24:03;99543.00;;;19.60
10058;BMP180;5068;51.286;7.518;2022-07-23T03:25:37;99542.00;;;19.60
10058;BMP180;5068;51.286;7.518;2022-07-23T03:27:09;99546.00;;;19.60
10058;BMP180;5068;51.286;7.518;2022-07-23T03:28:43;99545.00;;;19.50
10058;BMP180;5068;51.286;7.518;2022-07-23T03:30:18;99542.00;;;19.50
10058;BMP180;5068;51.286;7.518;2022-07-23T03:31:52;99538.00;;;19.50
10058;BMP180;5068;51.286;7.518;2022-07-23T03:33:25;99542.00;;;19.50
10058;BMP180;5068;51.286;7.518;2022-07-23T03:34:59;99543.00;;;19.50
10058;BMP180;5068;51.286;7.518;2022-07-23T03:36:33;99530.00;;;19.50
10058;BMP180;5068;51.286;7.518;2022-07-23T03:38:06;99530.00;;;19.60
10058;BMP180;5068;51.286;7.518;2022-07-23T03:39:40;99528.00;;;19.60
10058;BMP180;5068;51.286;7.518;2022-07-23T03:41:14;99524.00;;;19.60
10058;BMP180;5068;51.286;7.518;2022-07-23T03:42:49;99528.00;;;19.60
10058;BMP180;5068;51.286;7.518;2022-07-23T03:44:22;99519.00;;;19.60
10058;BMP180;5068;51.286;7.518;2022-07-23T03:45:57;99532.00;;;19.60
10058;BMP180;5068;51.286;7.518;2022-07-23T03:47:31;99524.00;;;19.60
10058;BMP180;5068;51.286;7.518;2022-07-23T03:49:04;99524.00;;;19.60
10058;BMP180;5068;51.286;7.518;2022-07-23T03:50:39;99518.00;;;19.60
10058;BMP180;5068;51.286;7.518;2022-07-23T03:52:12;99522.00;;;19.60
10058;BMP180;5068;51.286;7.518;2022-07-23T03:53:46;99524.00;;;19.50
10058;BMP180;5068;51.286;7.518;2022-07-23T03:55:21;99531.00;;;19.50
10058;BMP180;5068;51.286;7.518;2022-07-23T03:56:55;99534.00;;;19.50
10058;BMP180;5068;51.286;7.518;2022-07-23T03:58:28;99535.00;;;19.50
10058;BMP180;5068;51.286;7.518;2022-07-23T04:00:05;99541.00;;;19.50
10058;BMP180;5068;51.286;7.518;2022-07-23T04:01:57;99539.00;;;19.50
10058;BMP180;5068;51.286;7.518;2022-07-23T04:03:31;99546.00;;;19.50
10058;BMP180;5068;51.286;7.518;2022-07-23T04:05:06;99539.00;;;19.50
10058;BMP180;5068;51.286;7.518;2022-07-23T04:06:40;99537.00;;;19.40
10058;BMP180;5068;51.286;7.518;2022-07-23T04:08:13;99534.00;;;19.40
10058;BMP180;5068;51.286;7.518;2022-07-23T04:09:50;99545.00;;;19.30
10058;BMP180;5068;51.286;7.518;2022-07-23T04:11:23;99545.00;;;19.30
10058;BMP180;5068;51.286;7.518;2022-07-23T04:12:57;99550.00;;;19.30
10058;BMP180;5068;51.286;7.518;2022-07-23T04:14:30;99547.00;;;19.30
10058;BMP180;5068;51.286;7.518;2022-07-23T04:16:05;99544.00;;;19.30
10058;BMP180;5068;51.286;7.518;2022-07-23T04:17:40;99546.00;;;19.30
10058;BMP180;5068;51.286;7.518;2022-07-23T04:19:13;99546.00;;;19.30
10058;BMP180;5068;51.286;7.518;2022-07-23T04:20:59;99549.00;;;19.30
10058;BMP180;5068;51.286;7.518;2022-07-23T04:22:33;99548.00;;;19.30
10058;BMP180;5068;51.286;7.518;2022-07-23T04:24:07;99540.00;;;19.20
10058;BMP180;5068;51.286;7.518;2022-07-23T04:25:40;99540.00;;;19.20
10058;BMP180;5068;51.286;7.518;2022-07-23T04:27:14;99545.00;;;19.20
10058;BMP180;5068;51.286;7.518;2022-07-23T04:28:47;99541.00;;;19.20
10058;BMP180;5068;51.286;7.518;2022-07-23T04:30:21;99544.00;;;19.10
10058;BMP180;5068;51.286;7.518;2022-07-23T04:31:55;99535.00;;;19.10
10058;BMP180;5068;51.286;7.518;2022-07-23T04:33:31;99544.00;;;19.00
10058;BMP180;5068;51.286;7.518;2022-07-23T04:35:09;99539.00;;;19.00
10058;BMP180;5068;51.286;7.518;2022-07-23T04:36:42;99551.00;;;19.00
10058;BMP180;5068;51.286;7.518;2022-07-23T04:38:16;99548.00;;;19.00
10058;BMP180;5068;51.286;7.518;2022-07-23T04:39:50;99552.00;;;19.00
10058;BMP180;5068;51.286;7.518;2022-07-23T04:41:23;99555.00;;;19.00
10058;BMP180;5068;51.286;7.518;2022-07-23T04:42:57;99560.00;;;19.00
10058;BMP180;5068;51.286;7.518;2022-07-23T04:44:31;99565.00;;;19.00
10058;BMP180;5068;51.286;7.518;2022-07-23T04:46:04;99553.00;;;19.00
10058;BMP180;5068;51.286;7.518;2022-07-23T04:47:47;99555.00;;;19.00
10058;BMP180;5068;51.286;7.518;2022-07-23T04:49:22;99555.00;;;19.10
10058;BMP180;5068;51.286;7.518;2022-07-23T04:50:55;99557.00;;;19.10
10058;BMP180;5068;51.286;7.518;2022-07-23T04:52:32;99563.00;;;19.10
10058;BMP180;5068;51.286;7.518;2022-07-23T04:54:05;99570.00;;;19.10
10058;BMP180;5068;51.286;7.518;2022-07-23T04:55:39;99569.00;;;19.10
10058;BMP180;5068;51.286;7.518;2022-07-23T04:57:13;99563.00;;;19.10
10058;BMP180;5068;51.286;7.518;2022-07-23T04:58:46;99575.00;;;19.10
10058;BMP180;5068;51.286;7.518;2022-07-23T05:00:19;99575.00;;;19.10
10058;BMP180;5068;51.286;7.518;2022-07-23T05:01:52;99573.00;;;19.10
10058;BMP180;5068;51.286;7.518;2022-07-23T05:03:26;99582.00;;;19.10
10058;BMP180;5068;51.286;7.518;2022-07-23T05:05:01;99576.00;;;19.10
10058;BMP180;5068;51.286;7.518;2022-07-23T05:06:34;99585.00;;;19.10
10058;BMP180;5068;51.286;7.518;2022-07-23T05:08:09;99581.00;;;19.10
10058;BMP180;5068;51.286;7.518;2022-07-23T05:09:43;99582.00;;;19.10
10058;BMP180;5068;51.286;7.518;2022-07-23T05:11:17;99573.00;;;19.10
10058;BMP180;5068;51.286;7.518;2022-07-23T05:12:58;99588.00;;;19.00
10058;BMP180;5068;51.286;7.518;2022-07-23T05:14:31;99591.00;;;19.00
10058;BMP180;5068;51.286;7.518;2022-07-23T05:16:05;99592.00;;;18.90
10058;BMP180;5068;51.286;7.518;2022-07-23T05:17:40;99591.00;;;18.90
10058;BMP180;5068;51.286;7.518;2022-07-23T05:19:18;99591.00;;;18.80
10058;BMP180;5068;51.286;7.518;2022-07-23T05:20:58;99587.00;;;18.80
10058;BMP180;5068;51.286;7.518;2022-07-23T05:22:31;99590.00;;;18.80
10058;BMP180;5068;51.286;7.518;2022-07-23T05:24:06;99594.00;;;18.80
10058;BMP180;5068;51.286;7.518;2022-07-23T05:25:40;99600.00;;;18.80
10058;BMP180;5068;51.286;7.518;2022-07-23T05:27:14;99605.00;;;18.80
10058;BMP180;5068;51.286;7.518;2022-07-23T05:28:48;99606.00;;;18.80
10058;BMP180;5068;51.286;7.518;2022-07-23T05:30:23;99601.00;;;18.80
10058;BMP180;5068;51.286;7.518;2022-07-23T05:32:02;99600.00;;;18.80
10058;BMP180;5068;51.286;7.518;2022-07-23T05:33:37;99603.00;;;18.70
10058;BMP180;5068;51.286;7.518;2022-07-23T05:35:11;99595.00;;;18.70
10058;BMP180;5068;51.286;7.518;2022-07-23T05:36:51;99603.00;;;18.70
10058;BMP180;5068;51.286;7.518;2022-07-23T05:38:25;99613.00;;;18.70
10058;BMP180;5068;51.286;7.518;2022-07-23T05:40:02;99609.00;;;18.70
10058;BMP180;5068;51.286;7.518;2022-07-23T05:41:36;99613.00;;;18.70
10058;BMP180;5068;51.286;7.518;2022-07-23T05:43:09;99609.00;;;18.70
10058;BMP180;5068;51.286;7.518;2022-07-23T05:44:43;99616.00;;;18.70
10058;BMP180;5068;51.286;7.518;2022-07-23T05:46:17;99617.00;;;18.80
10058;BMP180;5068;51.286;7.518;2022-07-23T05:47:55;99617.00;;;18.80
10058;BMP180;5068;51.286;7.518;2022-07-23T05:49:37;99623.00;;;18.80
10058;BMP180;5068;51.286;7.518;2022-07-23T05:51:26;99621.00;;;18.80
10058;BMP180;5068;51.286;7.518;2022-07-23T05:53:01;99626.00;;;18.80
10058;BMP180;5068;51.286;7.518;2022-07-23T05:54:54;99627.00;;;18.80
10058;BMP180;5068;51.286;7.518;2022-07-23T05:56:28;99624.00;;;18.80
10058;BMP180;5068;51.286;7.518;2022-07-23T05:58:01;99631.00;;;18.80
10058;BMP180;5068;51.286;7.518;2022-07-23T05:59:36;99625.00;;;18.90
10058;BMP180;5068;51.286;7.518;2022-07-23T06:01:10;99621.00;;;18.90
10058;BMP180;5068;51.286;7.518;2022-07-23T06:02:52;99615.00;;;18.90
10058;BMP180;5068;51.286;7.518;2022-07-23T06:04:28;99620.00;;;18.90
10058;BMP180;5068;51.286;7.518;2022-07-23T06:06:19;99623.00;;;18.90
10058;BMP180;5068;51.286;7.518;2022-07-23T06:07:52;99624.00;;;18.90
10058;BMP180;5068;51.286;7.518;2022-07-23T06:09:29;99628.00;;;18.90
10058;BMP180;5068;51.286;7.518;2022-07-23T06:11:03;99628.00;;;19.00
10058;BMP180;5068;51.286;7.518;2022-07-23T06:12:36;99627.00;;;19.00
10058;BMP180;5068;51.286;7.518;2022-07-23T06:14:10;99629.00;;;19.00
10058;BMP180;5068;51.286;7.518;2022-07-23T06:15:52;99627.00;;;19.00
10058;BMP180;5068;51.286;7.518;2022-07-23T06:17:26;99626.00;;;19.10
10058;BMP180;5068;51.286;7.518;2022-07-23T06:18:59;99634.00;;;19.10
10058;BMP180;5068;51.286;7.518;2022-07-23T06:20:35;99621.00;;;19.10
10058;BMP180;5068;51.286;7.518;2022-07-23T06:22:09;99632.00;;;19.10
10058;BMP180;5068;51.286;7.518;2022-07-23T06:23:42;99629.00;;;19.20
10058;BMP180;5068;51.286;7.518;2022-07-23T06:25:16;99633.00;;;19.20
10058;BMP180;5068;51.286;7.518;2022-07-23T06:26:51;99632.00;;;19.20
10058;BMP180;5068;51.286;7.518;2022-07-23T06:28:25;99640.00;;;19.20
10058;BMP180;5068;51.286;7.518;2022-07-23T06:29:58;99634.00;;;19.20
10058;BMP180;5068;51.286;7.518;2022-07-23T06:31:32;99635.00;;;19.30
10058;BMP180;5068;51.286;7.518;2022-07-23T06:33:05;99628.00;;;19.30
10058;BMP180;5068;51.286;7.518;2022-07-23T06:34:38;99633.00;;;19.30
10058;BMP180;5068;51.286;7.518;2022-07-23T06:36:19;99640.00;;;19.30
10058;BMP180;5068;51.286;7.518;2022-07-23T06:37:54;99637.00;;;19.30
10058;BMP180;5068;51.286;7.518;2022-07-23T06:39:27;99649.00;;;19.30
10058;BMP180;5068;51.286;7.518;2022-07-23T06:41:04;99642.00;;;19.30
10058;BMP180;5068;51.286;7.518;2022-07-23T06:42:38;99645.00;;;19.30
10058;BMP180;5068;51.286;7.518;2022-07-23T06:44:12;99650.00;;;19.30
10058;BMP180;5068;51.286;7.518;2022-07-23T06:45:47;99647.00;;;19.30
10058;BMP180;5068;51.286;7.518;2022-07-23T06:47:21;99642.00;;;19.40
10058;BMP180;5068;51.286;7.518;2022-07-23T06:48:54;99645.00;;;19.40
10058;BMP180;5068;51.286;7.518;2022-07-23T06:50:30;99650.00;;;19.40
10058;BMP180;5068;51.286;7.518;2022-07-23T06:52:03;99653.00;;;19.40
10058;BMP180;5068;51.286;7.518;2022-07-23T06:53:38;99657.00;;;19.50
10058;BMP180;5068;51.286;7.518;2022-07-23T06:55:14;99655.00;;;19.50
10058;BMP180;5068;51.286;7.518;2022-07-23T06:56:51;99652.00;;;19.50
10058;BMP180;5068;51.286;7.518;2022-07-23T06:58:24;99653.00;;;19.50
10058;BMP180;5068;51.286;7.518;2022-07-23T06:59:57;99650.00;;;19.50
10058;BMP180;5068;51.286;7.518;2022-07-23T07:01:30;99652.00;;;19.60
10058;BMP180;5068;51.286;7.518;2022-07-23T07:03:04;99654.00;;;19.60
10058;BMP180;5068;51.286;7.518;2022-07-23T07:04:38;99655.00;;;19.60
10058;BMP180;5068;51.286;7.518;2022-07-23T07:06:13;99660.00;;;19.70
10058;BMP180;5068;51.286;7.518;2022-07-23T07:07:46;99664.00;;;19.70
10058;BMP180;5068;51.286;7.518;2022-07-23T07:09:20;99653.00;;;19.70
10058;BMP180;5068;51.286;7.518;2022-07-23T07:10:53;99649.00;;;19.80
10058;BMP180;5068;51.286;7.518;2022-07-23T07:12:28;99658.00;;;19.80
10058;BMP180;5068;51.286;7.518;2022-07-23T07:14:02;99647.00;;;19.80
10058;BMP180;5068;51.286;7.518;2022-07-23T07:15:36;99653.00;;;19.80
10058;BMP180;5068;51.286;7.518;2022-07-23T07:17:09;99654.00;;;19.90
10058;BMP180;5068;51.286;7.518;2022-07-23T07:18:43;99656.00;;;19.90
10058;BMP180;5068;51.286;7.518;2022-07-23T07:20:17;99661.00;;;20.00
10058;BMP180;5068;51.286;7.518;2022-07-23T07:21:50;99671.00;;;20.00
10058;BMP180;5068;51.286;7.518;2022-07-23T07:23:24;99668.00;;;20.10
10058;BMP180;5068;51.286;7.518;2022-07-23T07:24:57;99662.00;;;20.10
10058;BMP180;5068;51.286;7.518;2022-07-23T07:26:31;99670.00;;;20.20
10058;BMP180;5068;51.286;7.518;2022-07-23T07:28:06;99670.00;;;20.20
10058;BMP180;5068;51.286;7.518;2022-07-23T07:29:40;99676.00;;;20.30
10058;BMP180;5068;51.286;7.518;2022-07-23T07:31:13;99665.00;;;20.40
10058;BMP180;5068;51.286;7.518;2022-07-23T07:32:47;99673.00;;;20.40
10058;BMP180;5068;51.286;7.518;2022-07-23T07:34:29;99673.00;;;20.50
10058;BMP180;5068;51.286;7.518;2022-07-23T07:36:04;99675.00;;;20.60
10058;BMP180;5068;51.286;7.518;2022-07-23T07:37:38;99669.00;;;20.60
10058;BMP180;5068;51.286;7.518;2022-07-23T07:39:11;99676.00;;;20.60
10058;BMP180;5068;51.286;7.518;2022-07-23T07:40:44;99673.00;;;20.70
10058;BMP180;5068;51.286;7.518;2022-07-23T07:42:18;99680.00;;;20.70
10058;BMP180;5068;51.286;7.518;2022-07-23T07:43:53;99675.00;;;20.70
10058;BMP180;5068;51.286;7.518;2022-07-23T07:45:27;99680.00;;;20.70
10058;BMP180;5068;51.286;7.518;2022-07-23T07:47:00;99680.00;;;20.80
10058;BMP180;5068;51.286;7.518;2022-07-23T07:48:33;99688.00;;;20.90
10058;BMP180;5068;51.286;7.518;2022-07-23T07:50:08;99682.00;;;20.90
10058;BMP180;5068;51.286;7.518;2022-07-23T07:51:43;99683.00;;;21.00
10058;BMP180;5068;51.286;7.518;2022-07-23T07:53:17;99684.00;;;21.00
10058;BMP180;5068;51.286;7.518;2022-07-23T07:54:51;99689.00;;;21.10
10058;BMP180;5068;51.286;7.518;2022-07-23T07:56:25;99696.00;;;21.10
10058;BMP180;5068;51.286;7.518;2022-07-23T07:58:00;99694.00;;;21.20
10058;BMP180;5068;51.286;7.518;2022-07-23T07:59:35;99700.00;;;21.20
10058;BMP180;5068;51.286;7.518;2022-07-23T08:01:08;99703.00;;;21.30
10058;BMP180;5068;51.286;7.518;2022-07-23T08:02:45;99702.00;;;21.30
10058;BMP180;5068;51.286;7.518;2022-07-23T08:04:20;99698.00;;;21.30
10058;BMP180;5068;51.286;7.518;2022-07-23T08:05:53;99705.00;;;21.20
10058;BMP180;5068;51.286;7.518;2022-07-23T08:07:27;99702.00;;;21.20
10058;BMP180;5068;51.286;7.518;2022-07-23T08:09:00;99703.00;;;21.20
10058;BMP180;5068;51.286;7.518;2022-07-23T08:10:34;99704.00;;;21.30
10058;BMP180;5068;51.286;7.518;2022-07-23T08:12:08;99707.00;;;21.30
10058;BMP180;5068;51.286;7.518;2022-07-23T08:13:40;99716.00;;;21.30
10058;BMP180;5068;51.286;7.518;2022-07-23T08:15:19;99710.00;;;21.30
10058;BMP180;5068;51.286;7.518;2022-07-23T08:16:53;99709.00;;;21.30
10058;BMP180;5068;51.286;7.518;2022-07-23T08:18:45;99717.00;;;21.30
10058;BMP180;5068;51.286;7.518;2022-07-23T08:20:22;99719.00;;;21.40
10058;BMP180;5068;51.286;7.518;2022-07-23T08:21:56;99722.00;;;21.40
10058;BMP180;5068;51.286;7.518;2022-07-23T08:23:30;99727.00;;;21.40
10058;BMP180;5068;51.286;7.518;2022-07-23T08:25:04;99736.00;;;21.40
10058;BMP180;5068;51.286;7.518;2022-07-23T08:26:38;99735.00;;;21.40
10058;BMP180;5068;51.286;7.518;2022-07-23T08:28:13;99730.00;;;21.40
10058;BMP180;5068;51.286;7.518;2022-07-23T08:29:47;99739.00;;;21.40
10058;BMP180;5068;51.286;7.518;2022-07-23T08:31:23;99737.00;;;21.40
10058;BMP180;5068;51.286;7.518;2022-07-23T08:33:00;99729.00;;;21.40
10058;BMP180;5068;51.286;7.518;2022-07-23T08:34:34;99745.00;;;21.40
10058;BMP180;5068;51.286;7.518;2022-07-23T08:36:12;99738.00;;;21.40
10058;BMP180;5068;51.286;7.518;2022-07-23T08:37:46;99740.00;;;21.50
10058;BMP180;5068;51.286;7.518;2022-07-23T08:39:18;99738.00;;;21.60
10058;BMP180;5068;51.286;7.518;2022-07-23T08:40:55;99734.00;;;21.70
10058;BMP180;5068;51.286;7.518;2022-07-23T08:42:30;99741.00;;;21.80
10058;BMP180;5068;51.286;7.518;2022-07-23T08:44:07;99741.00;;;21.90
10058;BMP180;5068;51.286;7.518;2022-07-23T08:45:44;99732.00;;;21.90
10058;BMP180;5068;51.286;7.518;2022-07-23T08:47:19;99735.00;;;22.00
10058;BMP180;5068;51.286;7.518;2022-07-23T08:48:54;99740.00;;;22.10
10058;BMP180;5068;51.286;7.518;2022-07-23T08:50:28;99737.00;;;22.20
10058;BMP180;5068;51.286;7.518;2022-07-23T08:52:02;99731.00;;;22.30
10058;BMP180;5068;51.286;7.518;2022-07-23T08:53:35;99734.00;;;22.40
10058;BMP180;5068;51.286;7.518;2022-07-23T08:55:10;99736.00;;;22.50
10058;BMP180;5068;51.286;7.518;2022-07-23T08:56:44;99733.00;;;22.60
10058;BMP180;5068;51.286;7.518;2022-07-23T08:58:18;99742.00;;;22.70
10058;BMP180;5068;51.286;7.518;2022-07-23T08:59:59;99735.00;;;22.80
10058;BMP180;5068;51.286;7.518;2022-07-23T09:01:33;99747.00;;;22.90
10058;BMP180;5068;51.286;7.518;2022-07-23T09:03:16;99755.00;;;23.00
10058;BMP180;5068;51.286;7.518;2022-07-23T09:04:50;99743.00;;;23.00
10058;BMP180;5068;51.286;7.518;2022-07-23T09:06:24;99743.00;;;23.10
10058;BMP180;5068;51.286;7.518;2022-07-23T09:08:10;99746.00;;;23.20
10058;BMP180;5068;51.286;7.518;2022-07-23T09:09:44;99746.00;;;23.20
10058;BMP180;5068;51.286;7.518;2022-07-23T09:11:18;99752.00;;;23.30
10058;BMP180;5068;51.286;7.518;2022-07-23T09:12:52;99748.00;;;23.40
10058;BMP180;5068;51.286;7.518;2022-07-23T09:14:37;99753.00;;;23.40